createdAt,value
2023-11-11T00:01:41.145Z,1.00
2023-11-11T00:04:42.434Z,1.20
2023-11-11T00:07:44.776Z,1.58
2023-11-11T00:10:46.016Z,1.95
2023-11-11T00:13:47.175Z,2.45
2023-11-11T00:16:48.359Z,1.17
2023-11-11T00:19:49.356Z,1.10
2023-11-11T00:22:50.964Z,1.15
2023-11-11T00:25:52.217Z,5.05
2023-11-11T00:28:53.206Z,1.65
2023-11-11T00:31:54.208Z,1.00
2023-11-11T00:34:55.350Z,1.20
2023-11-11T00:37:56.695Z,0.82
2023-11-11T00:40:58.004Z,1.55
2023-11-11T00:43:59.426Z,2.08
2023-11-11T00:47:00.852Z,1.90
2023-11-11T00:50:02.482Z,2.40
2023-11-11T00:53:04.174Z,0.60
2023-11-11T00:56:05.464Z,0.70
2023-11-11T00:59:06.780Z,0.98
2023-11-11T01:02:07.619Z,1.15
2023-11-11T01:05:11.140Z,0.90
2023-11-11T01:08:12.727Z,1.20
2023-11-11T01:11:13.724Z,0.80
2023-11-11T01:14:15.509Z,0.82
2023-11-11T01:17:17.342Z,1.00
2023-11-11T01:20:18.828Z,0.73
2023-11-11T01:23:19.977Z,0.70
2023-11-11T01:26:21.134Z,0.88
2023-11-11T01:29:22.732Z,0.70
2023-11-11T01:32:24.318Z,0.70
2023-11-11T01:35:25.558Z,1.45
2023-11-11T01:38:26.402Z,1.65
2023-11-11T01:41:27.717Z,0.60
2023-11-11T01:44:28.910Z,0.70
2023-11-11T01:47:30.498Z,0.70
2023-11-11T01:50:31.838Z,0.60
2023-11-11T01:53:35.996Z,0.70
2023-11-11T01:56:37.210Z,0.80
2023-11-11T01:59:40.924Z,0.77
2023-11-11T02:02:42.476Z,0.70
2023-11-11T02:05:44.353Z,0.68
2023-11-11T02:08:45.844Z,1.15
2023-11-11T02:11:53.151Z,1.75
2023-11-11T02:14:54.366Z,1.27
2023-11-11T02:18:00.423Z,0.50
2023-11-11T02:21:02.263Z,0.70
2023-11-11T02:24:05.304Z,0.60
2023-11-11T02:27:07.302Z,0.95
2023-11-11T02:30:13.653Z,0.75
2023-11-11T02:33:15.113Z,0.82
2023-11-11T02:36:16.664Z,0.65
2023-11-11T02:39:17.787Z,0.65
2023-11-11T02:42:20.277Z,1.05
2023-11-11T02:45:21.297Z,1.10
2023-11-11T02:48:22.871Z,0.95
2023-11-11T02:51:24.099Z,1.45
2023-11-11T02:54:27.162Z,0.90
2023-11-11T02:57:28.274Z,0.90
2023-11-11T03:00:29.653Z,0.90
2023-11-11T03:03:31.410Z,0.90
2023-11-11T03:06:32.606Z,0.70
2023-11-11T03:09:33.957Z,0.70
2023-11-11T03:12:35.327Z,0.60
2023-11-11T03:15:38.929Z,0.80
2023-11-11T03:18:40.332Z,0.80
2023-11-11T03:21:42.003Z,1.13
2023-11-11T03:24:43.564Z,1.08
2023-11-11T03:27:45.159Z,0.80
2023-11-11T03:30:49.547Z,0.90
2023-11-11T03:33:50.654Z,1.77
2023-11-11T03:36:51.902Z,3.92
2023-11-11T03:39:53.409Z,1.20
2023-11-11T03:42:54.750Z,1.17
2023-11-11T03:45:56.448Z,1.95
2023-11-11T03:48:57.740Z,1.38
2023-11-11T03:51:59.789Z,2.15
2023-11-11T03:55:01.256Z,1.20
2023-11-11T03:58:02.390Z,1.48
2023-11-11T04:01:03.537Z,1.42
2023-11-11T04:04:05.310Z,3.72
2023-11-11T04:07:06.629Z,1.48
2023-11-11T04:10:09.138Z,1.85
2023-11-11T04:13:10.789Z,3.42
2023-11-11T04:16:12.195Z,1.70
2023-11-11T04:19:13.640Z,2.75
2023-11-11T04:22:15.296Z,4.72
2023-11-11T04:25:16.577Z,1.70
2023-11-11T04:28:17.887Z,2.75
2023-11-11T04:31:19.341Z,3.00
2023-11-11T04:34:21.773Z,5.63
2023-11-11T04:37:22.937Z,2.03
2023-11-11T04:40:24.258Z,2.15
2023-11-11T04:43:30.897Z,3.50
2023-11-11T04:46:31.929Z,3.17
2023-11-11T04:49:33.209Z,2.25
2023-11-11T04:52:36.768Z,2.35
2023-11-11T04:55:37.844Z,3.80
2023-11-11T04:58:40.045Z,2.25
2023-11-11T05:01:42.245Z,1.88
2023-11-11T05:04:43.789Z,2.30
2023-11-11T05:07:45.824Z,3.03
2023-11-11T05:10:47.261Z,2.47
2023-11-11T05:13:48.254Z,3.15
2023-11-11T05:16:52.474Z,2.22
2023-11-11T05:19:56.840Z,2.58
2023-11-11T05:22:58.690Z,1.50
2023-11-11T05:25:59.840Z,3.97
2023-11-11T05:29:01.009Z,5.35
2023-11-11T05:32:02.155Z,1.85
2023-11-11T05:35:07.274Z,1.98
2023-11-11T05:38:09.099Z,1.88
2023-11-11T05:41:10.491Z,1.65
2023-11-11T05:44:11.933Z,2.08
2023-11-11T05:47:13.359Z,2.03
2023-11-11T05:50:15.023Z,1.42
2023-11-11T05:53:17.090Z,2.10
2023-11-11T05:56:19.887Z,2.03
2023-11-11T05:59:21.290Z,2.75
2023-11-11T06:02:22.527Z,2.20
2023-11-11T06:05:24.076Z,5.75
2023-11-11T06:08:25.359Z,4.03
2023-11-11T06:11:28.762Z,1.83
2023-11-11T06:14:31.137Z,5.50
2023-11-11T06:17:32.846Z,2.65
2023-11-11T06:20:34.938Z,2.22
2023-11-11T06:26:40.793Z,1.55
2023-11-11T06:29:42.224Z,2.63
2023-11-11T06:32:44.348Z,2.28
2023-11-11T06:35:45.642Z,2.50
2023-11-11T06:38:48.058Z,2.10
2023-11-11T06:41:49.263Z,2.10
2023-11-11T06:44:50.775Z,2.28
2023-11-11T06:47:52.414Z,3.10
2023-11-11T06:50:54.567Z,2.50
2023-11-11T06:53:55.479Z,2.83
2023-11-11T06:56:56.882Z,3.08
2023-11-11T06:59:58.145Z,5.28
2023-11-11T07:03:02.546Z,9.07
2023-11-11T07:06:04.814Z,4.43
2023-11-11T07:09:07.520Z,2.22
2023-11-11T07:12:09.361Z,2.53
2023-11-11T07:15:11.716Z,5.50
2023-11-11T07:18:13.733Z,7.85
2023-11-11T07:21:23.653Z,2.97
2023-11-11T07:24:25.192Z,4.53
2023-11-11T07:27:26.163Z,4.00
2023-11-11T07:30:27.665Z,3.67
2023-11-11T07:33:29.310Z,3.15
2023-11-11T07:36:30.770Z,8.73
2023-11-11T07:39:35.210Z,2.95
2023-11-11T07:42:36.766Z,4.95
2023-11-11T07:45:37.851Z,3.30
2023-11-11T07:48:39.494Z,3.05
2023-11-11T07:51:45.352Z,8.00
2023-11-11T07:54:46.486Z,2.85
2023-11-11T08:00:52.861Z,2.15
2023-11-11T08:03:55.061Z,3.67
2023-11-11T08:06:56.311Z,4.95
2023-11-11T08:09:57.974Z,5.25
2023-11-11T08:12:58.953Z,2.72
2023-11-11T08:16:00.930Z,2.95
2023-11-11T08:19:02.439Z,6.65
2023-11-11T08:22:06.484Z,5.13
2023-11-11T08:25:08.400Z,1.85
2023-11-11T08:28:09.625Z,2.00
2023-11-11T08:31:10.844Z,2.10
2023-11-11T08:34:13.702Z,2.30
2023-11-11T08:40:33.948Z,2.03
2023-11-11T08:43:36.703Z,2.75
2023-11-11T08:46:39.774Z,2.30
2023-11-11T08:49:40.908Z,1.38
2023-11-11T08:52:43.301Z,2.22
2023-11-11T08:55:44.662Z,3.47
2023-11-11T08:58:45.632Z,1.35
2023-11-11T09:01:47.194Z,2.88
2023-11-11T09:04:48.592Z,1.70
2023-11-11T09:07:50.814Z,3.00
2023-11-11T09:10:52.166Z,3.80
2023-11-11T09:13:53.988Z,2.15
2023-11-11T09:16:55.517Z,2.90
2023-11-11T09:19:56.554Z,3.72
2023-11-11T09:22:57.671Z,1.60
2023-11-11T09:25:58.933Z,1.88
2023-11-11T09:29:01.033Z,3.03
2023-11-11T09:32:02.617Z,4.85
2023-11-11T09:35:04.694Z,2.15
2023-11-11T09:38:05.877Z,2.97
2023-11-11T09:41:07.369Z,1.75
2023-11-11T09:45:24.292Z,5.75
2023-11-11T09:47:34.588Z,2.78
2023-11-11T09:50:35.820Z,2.58
2023-11-11T09:53:42.211Z,1.80
2023-11-11T09:59:52.964Z,2.23
2023-11-11T10:02:54.507Z,3.58
2023-11-11T10:05:56.249Z,2.65
2023-11-11T10:08:57.937Z,2.40
2023-11-11T10:11:59.362Z,2.22
2023-11-11T10:15:05.540Z,2.55
2023-11-11T10:18:08.067Z,3.17
2023-11-11T10:21:09.696Z,2.20
2023-11-11T10:24:12.010Z,1.80
2023-11-11T10:27:14.111Z,1.50
2023-11-11T10:30:21.727Z,2.47
2023-11-11T10:33:22.717Z,2.33
2023-11-11T10:36:24.537Z,1.45
2023-11-11T10:39:26.012Z,2.13
2023-11-11T10:42:28.586Z,5.30
2023-11-11T10:45:32.049Z,2.45
2023-11-11T10:48:34.733Z,2.67
2023-11-11T10:51:37.472Z,1.48
2023-11-11T10:54:41.539Z,3.42
2023-11-11T10:57:44.461Z,1.63
2023-11-11T11:00:49.321Z,1.77
2023-11-11T11:03:51.758Z,1.35
2023-11-11T11:07:10.950Z,5.32
2023-11-11T11:10:39.809Z,1.35
2023-11-11T11:13:44.799Z,1.35
2023-11-11T11:16:46.051Z,2.15
2023-11-11T11:19:56.515Z,1.35
2023-11-11T11:23:01.737Z,1.80
2023-11-11T11:26:04.177Z,1.27
2023-11-11T11:29:21.176Z,1.77
2023-11-11T11:32:25.928Z,1.83
2023-11-11T11:35:29.334Z,2.30
2023-11-11T11:38:36.445Z,3.00
2023-11-11T11:41:40.331Z,0.85
2023-11-11T11:44:41.264Z,3.20
2023-11-11T11:47:43.173Z,1.27
2023-11-11T11:50:44.620Z,2.65
2023-11-11T11:53:49.832Z,2.10
2023-11-11T11:56:51.418Z,2.47
2023-11-11T12:00:15.558Z,3.75
2023-11-11T12:03:19.392Z,2.72
2023-11-11T12:06:21.945Z,1.48
2023-11-11T12:09:23.727Z,2.28
2023-11-11T12:12:33.558Z,1.88
2023-11-11T12:15:34.878Z,1.45
2023-11-11T12:18:36.892Z,2.55
2023-11-11T12:21:47.420Z,1.85
2023-11-11T12:24:49.295Z,4.00
2023-11-11T12:27:52.506Z,4.05
2023-11-11T12:31:06.620Z,1.73
2023-11-11T12:34:10.141Z,4.05
2023-11-11T12:37:11.401Z,2.03
2023-11-11T12:40:13.704Z,1.88
2023-11-11T12:43:15.061Z,2.45
2023-11-11T12:46:17.350Z,3.60
2023-11-11T12:49:21.927Z,1.55
2023-11-11T12:52:23.245Z,2.63
2023-11-11T12:55:25.614Z,1.88
2023-11-11T12:58:28.981Z,2.65
2023-11-11T13:01:30.557Z,2.83
2023-11-11T13:04:32.112Z,2.92
2023-11-11T13:07:34.071Z,1.75
2023-11-11T13:10:35.531Z,1.83
2023-11-11T13:13:36.960Z,4.10
2023-11-11T13:16:38.818Z,2.15
2023-11-11T13:19:41.539Z,1.48
2023-11-11T13:22:42.719Z,1.55
2023-11-11T13:25:44.107Z,3.17
2023-11-11T13:28:48.098Z,3.30
2023-11-11T13:31:50.174Z,2.72
2023-11-11T13:34:51.378Z,5.95
2023-11-11T13:37:56.143Z,2.05
2023-11-11T13:40:57.358Z,1.63
2023-11-11T13:43:58.472Z,2.33
2023-11-11T13:46:59.917Z,3.53
2023-11-11T13:50:02.295Z,1.98
2023-11-11T13:53:05.536Z,1.92
2023-11-11T13:56:10.390Z,2.25
2023-11-11T13:59:11.700Z,2.78
2023-11-11T14:02:13.936Z,2.45
2023-11-11T14:05:14.952Z,1.20
2023-11-11T14:08:19.233Z,1.52
2023-11-11T14:11:20.519Z,2.00
2023-11-11T14:14:22.239Z,2.40
2023-11-11T14:17:26.616Z,1.65
2023-11-11T14:20:30.829Z,2.40
2023-11-11T14:23:32.221Z,2.08
2023-11-11T14:26:33.838Z,2.72
2023-11-11T14:29:35.313Z,3.40
2023-11-11T14:32:38.780Z,2.33
2023-11-11T14:35:40.623Z,2.65
2023-11-11T14:38:41.767Z,1.48
2023-11-11T14:41:42.909Z,4.10
2023-11-11T14:44:44.702Z,2.42
2023-11-11T14:47:50.441Z,2.72
2023-11-11T14:50:51.628Z,2.30
2023-11-11T14:53:52.787Z,3.35
2023-11-11T14:56:53.998Z,1.98
2023-11-11T14:59:55.651Z,1.73
2023-11-11T15:02:58.346Z,1.50
2023-11-11T15:05:59.607Z,1.90
2023-11-11T15:09:01.374Z,1.15
2023-11-11T15:12:03.123Z,1.92
2023-11-11T15:15:08.950Z,1.83
2023-11-11T15:18:10.679Z,1.50
2023-11-11T15:21:11.916Z,1.63
2023-11-11T15:24:14.143Z,2.50
2023-11-11T15:27:16.161Z,2.75
2023-11-11T15:30:19.619Z,3.97
2023-11-11T15:33:20.580Z,1.77
2023-11-11T15:36:23.404Z,1.50
2023-11-11T15:39:24.570Z,2.15
2023-11-11T15:42:25.836Z,2.20
2023-11-11T15:45:27.129Z,3.38
2023-11-11T15:48:28.143Z,2.90
2023-11-11T15:51:29.263Z,2.00
2023-11-11T15:54:30.649Z,3.08
2023-11-11T15:57:31.609Z,2.88
2023-11-11T16:00:34.569Z,2.35
2023-11-11T16:03:37.747Z,2.45
2023-11-11T16:06:42.186Z,2.10
2023-11-11T16:09:44.270Z,2.15
2023-11-11T16:12:45.345Z,1.90
2023-11-11T16:15:46.675Z,2.15
2023-11-11T16:18:49.625Z,2.17
2023-11-11T16:21:51.230Z,2.33
2023-11-11T16:24:52.215Z,1.73
2023-11-11T16:27:53.888Z,1.80
2023-11-11T16:30:54.871Z,3.20
2023-11-11T16:33:58.908Z,2.53
2023-11-11T16:37:00.052Z,3.33
2023-11-11T16:40:02.952Z,2.42
2023-11-11T16:43:04.273Z,2.53
2023-11-11T16:46:05.556Z,3.80
2023-11-11T16:49:06.758Z,4.88
2023-11-11T16:52:07.733Z,3.17
2023-11-11T16:55:12.050Z,2.95
2023-11-11T16:58:12.794Z,3.08
2023-11-11T17:01:15.837Z,4.97
2023-11-11T17:04:18.118Z,3.03
2023-11-11T17:07:27.369Z,5.93
2023-11-11T17:10:29.692Z,3.13
2023-11-11T17:13:31.912Z,7.78
2023-11-11T17:16:33.241Z,4.88
2023-11-11T17:19:34.649Z,5.18
2023-11-11T17:22:36.319Z,3.20
2023-11-11T17:25:37.536Z,4.43
2023-11-11T17:28:39.151Z,4.60
2023-11-11T17:31:40.502Z,4.82
2023-11-11T17:34:41.931Z,7.07
2023-11-11T17:37:43.592Z,5.40
2023-11-11T17:40:44.909Z,4.95
2023-11-11T17:43:46.184Z,3.78
2023-11-11T17:46:47.726Z,5.80
2023-11-11T17:49:49.006Z,3.72
2023-11-11T17:52:50.362Z,5.93
2023-11-11T17:55:58.812Z,6.25
2023-11-11T17:59:00.427Z,4.15
2023-11-11T18:02:01.801Z,6.55
2023-11-11T18:05:02.846Z,3.35
2023-11-11T18:08:04.913Z,2.45
2023-11-11T18:11:10.894Z,3.42
2023-11-11T18:14:12.376Z,3.35
2023-11-11T18:17:13.879Z,1.83
2023-11-11T18:20:16.746Z,1.90
2023-11-11T18:23:18.145Z,2.58
2023-11-11T18:26:20.017Z,2.22
2023-11-11T18:29:23.890Z,2.88
2023-11-11T18:32:26.994Z,3.65
2023-11-11T18:35:28.369Z,2.60
2023-11-11T18:38:30.095Z,2.85
2023-11-11T18:41:31.183Z,3.13
2023-11-11T18:44:34.177Z,3.88
2023-11-11T18:47:35.076Z,5.15
2023-11-11T18:50:38.244Z,2.88
2023-11-11T18:53:39.986Z,4.85
2023-11-11T18:56:41.134Z,4.90
2023-11-11T18:59:42.421Z,2.63
2023-11-11T19:02:43.820Z,2.92
2023-11-11T19:05:44.927Z,4.50
2023-11-11T19:08:46.328Z,3.58
2023-11-11T19:11:47.731Z,2.95
2023-11-11T19:14:48.795Z,3.15
2023-11-11T19:17:50.230Z,5.32
2023-11-11T19:20:51.077Z,3.28
2023-11-11T19:23:52.062Z,3.45
2023-11-11T19:26:53.318Z,4.30
2023-11-11T19:29:54.560Z,3.45
2023-11-11T19:32:56.599Z,4.05
2023-11-11T19:35:57.738Z,3.13
2023-11-11T19:38:59.206Z,3.60
2023-11-11T19:42:00.160Z,4.82
2023-11-11T19:45:02.012Z,2.70
2023-11-11T19:48:03.510Z,3.60
2023-11-11T19:51:04.697Z,6.80
2023-11-11T19:54:13.300Z,4.07
2023-11-11T19:57:15.965Z,3.55
2023-11-11T20:00:17.407Z,4.38
2023-11-11T20:03:19.060Z,6.57
2023-11-11T20:06:20.540Z,7.72
2023-11-11T20:09:21.925Z,4.75
2023-11-11T20:12:24.832Z,8.50
2023-11-11T20:15:26.213Z,7.65
2023-11-11T20:18:27.416Z,8.35
2023-11-11T20:21:28.382Z,13.93
2023-11-11T20:24:29.463Z,9.63
2023-11-11T20:27:34.376Z,7.03
2023-11-11T20:30:39.414Z,4.35
2023-11-11T20:33:40.572Z,4.22
2023-11-11T20:36:46.057Z,2.97
2023-11-11T20:39:47.593Z,4.18
2023-11-11T20:42:51.987Z,7.20
2023-11-11T20:45:54.467Z,5.50
2023-11-11T20:48:55.468Z,4.10
2023-11-11T20:51:57.211Z,7.28
2023-11-11T20:55:01.777Z,9.43
2023-11-11T20:58:03.008Z,10.00
2023-11-11T21:01:04.232Z,8.07
2023-11-11T21:04:05.765Z,3.58
2023-11-11T21:07:07.094Z,6.28
2023-11-11T21:10:09.854Z,6.35
2023-11-11T21:13:10.919Z,5.50
2023-11-11T21:16:12.331Z,4.15
2023-11-11T21:19:13.549Z,5.13
2023-11-11T21:22:14.877Z,4.70
2023-11-11T21:25:16.339Z,3.45
2023-11-11T21:28:17.262Z,3.35
2023-11-11T21:31:19.132Z,6.90
2023-11-11T21:34:20.570Z,6.03
2023-11-11T21:37:21.490Z,15.60
2023-11-11T21:40:22.287Z,6.53
2023-11-11T21:43:23.135Z,3.83
2023-11-11T21:46:24.083Z,5.78
2023-11-11T21:49:25.944Z,7.47
2023-11-11T21:52:26.959Z,4.85
2023-11-11T21:55:27.878Z,6.15
2023-11-11T21:58:29.190Z,6.03
2023-11-11T22:01:30.445Z,4.68
2023-11-11T22:04:32.003Z,5.80
2023-11-11T22:07:32.938Z,5.18
2023-11-11T22:10:34.212Z,5.97
2023-11-11T22:13:35.577Z,7.53
2023-11-11T22:16:37.788Z,8.45
2023-11-11T22:19:40.932Z,9.30
2023-11-11T22:22:41.911Z,5.13
2023-11-11T22:25:43.851Z,7.30
2023-11-11T22:28:45.192Z,7.28
2023-11-11T22:31:46.474Z,10.45
2023-11-11T22:34:47.779Z,8.68
2023-11-11T22:37:49.168Z,4.40
2023-11-11T22:40:50.530Z,7.57
2023-11-11T22:43:54.008Z,7.90
2023-11-11T22:46:55.064Z,5.95
2023-11-11T22:49:56.440Z,4.47
2023-11-11T22:52:57.337Z,6.47
2023-11-11T22:55:58.643Z,8.27
2023-11-11T22:59:00.039Z,4.45
2023-11-11T23:02:01.447Z,5.10
2023-11-11T23:05:02.786Z,6.72
2023-11-11T23:08:04.675Z,4.97
2023-11-11T23:11:05.943Z,5.90
2023-11-11T23:14:11.023Z,3.80
2023-11-11T23:17:14.165Z,7.95
2023-11-11T23:20:15.623Z,4.18
2023-11-11T23:23:17.320Z,4.20
2023-11-11T23:26:18.951Z,6.85
2023-11-11T23:29:20.104Z,4.70
2023-11-11T23:32:21.586Z,5.22
2023-11-11T23:35:22.951Z,6.35
2023-11-11T23:38:25.779Z,3.85
2023-11-11T23:41:28.643Z,7.30
2023-11-11T23:44:29.639Z,3.85
2023-11-11T23:47:31.014Z,11.25
2023-11-11T23:50:33.651Z,4.40
2023-11-11T23:53:34.937Z,6.10
2023-11-11T23:56:36.215Z,5.13
2023-11-11T23:59:37.608Z,4.78
